createdAt,value
2022-12-04T00:00:39.262Z,4.57
2022-12-04T00:03:42.805Z,4.93
2022-12-04T00:06:46.000Z,5.30
2022-12-04T00:09:49.583Z,5.67
2022-12-04T00:12:52.770Z,5.50
2022-12-04T00:15:56.232Z,6.13
2022-12-04T00:18:59.758Z,6.30
2022-12-04T00:22:03.309Z,6.07
2022-12-04T00:25:06.931Z,6.30
2022-12-04T00:28:10.235Z,5.50
2022-12-04T00:31:23.157Z,5.77
2022-12-04T00:34:26.537Z,6.22
2022-12-04T00:37:30.107Z,5.68
2022-12-04T00:40:33.738Z,5.70
2022-12-04T00:43:42.128Z,6.17
2022-12-04T00:46:45.323Z,6.03
2022-12-04T00:49:48.841Z,5.38
2022-12-04T00:52:52.251Z,5.70
2022-12-04T00:55:55.790Z,6.03
2022-12-04T00:59:01.373Z,6.18
2022-12-04T01:02:05.156Z,6.07
2022-12-04T01:05:08.897Z,6.43
2022-12-04T01:08:13.093Z,6.32
2022-12-04T01:11:20.611Z,6.55
2022-12-04T01:14:23.798Z,6.85
2022-12-04T01:17:27.255Z,6.85
2022-12-04T01:20:30.805Z,7.13
2022-12-04T01:23:34.311Z,7.25
2022-12-04T01:26:37.628Z,7.10
2022-12-04T01:29:40.964Z,6.57
2022-12-04T01:32:44.200Z,7.00
2022-12-04T01:35:53.901Z,6.88
2022-12-04T01:38:57.463Z,6.70
2022-12-04T01:42:00.687Z,6.75
2022-12-04T01:45:50.670Z,6.78
2022-12-04T01:48:55.319Z,6.07
2022-12-04T01:52:07.243Z,5.55
2022-12-04T01:55:10.464Z,6.80
2022-12-04T01:58:13.960Z,5.93
2022-12-04T02:01:17.355Z,6.05
2022-12-04T02:04:20.924Z,6.70
2022-12-04T02:07:24.205Z,5.63
2022-12-04T02:10:59.433Z,5.90
2022-12-04T02:14:20.287Z,6.20
2022-12-04T02:17:28.851Z,6.10
2022-12-04T02:20:58.188Z,6.13
2022-12-04T02:24:16.190Z,5.63
2022-12-04T02:27:47.747Z,5.32
2022-12-04T02:30:56.091Z,4.90
2022-12-04T02:34:07.280Z,4.63
2022-12-04T02:37:16.140Z,5.95
2022-12-04T02:40:30.009Z,6.10
2022-12-04T02:43:59.413Z,5.20
2022-12-04T02:47:07.398Z,5.70
2022-12-04T02:50:15.812Z,5.20
2022-12-04T02:53:33.611Z,5.57
2022-12-04T02:56:41.080Z,5.70
2022-12-04T02:59:47.725Z,5.18
2022-12-04T03:03:02.966Z,5.10
2022-12-04T03:06:11.628Z,5.32
2022-12-04T03:09:44.840Z,5.32
2022-12-04T03:12:54.228Z,5.00
2022-12-04T03:16:04.962Z,4.53
2022-12-04T03:19:29.684Z,4.68
2022-12-04T03:22:36.661Z,4.55
2022-12-04T03:26:01.444Z,4.80
2022-12-04T03:29:22.355Z,4.97
2022-12-04T03:32:28.470Z,4.70
2022-12-04T03:35:38.413Z,4.93
2022-12-04T03:39:03.037Z,4.82
2022-12-04T03:42:16.400Z,4.50
2022-12-04T03:45:34.888Z,4.57
2022-12-04T03:48:43.999Z,4.35
2022-12-04T03:52:08.538Z,4.15
2022-12-04T03:55:19.237Z,4.20
2022-12-04T03:58:28.425Z,4.80
2022-12-04T04:01:38.901Z,4.45
2022-12-04T04:04:45.192Z,3.90
2022-12-04T04:07:56.008Z,3.88
2022-12-04T04:11:17.997Z,4.25
2022-12-04T04:15:18.949Z,4.15
2022-12-04T04:18:41.009Z,4.22
2022-12-04T04:22:04.859Z,3.67
2022-12-04T04:25:18.146Z,4.03
2022-12-04T04:28:39.664Z,4.45
2022-12-04T04:32:10.564Z,4.40
2022-12-04T04:35:21.783Z,3.80
2022-12-04T04:38:43.368Z,4.32
2022-12-04T04:41:54.262Z,4.22
2022-12-04T04:45:12.397Z,4.70
2022-12-04T04:48:35.367Z,4.22
2022-12-04T04:51:38.936Z,4.90
2022-12-04T04:54:42.597Z,3.93
2022-12-04T04:57:46.023Z,4.18
2022-12-04T05:00:57.585Z,4.72
2022-12-04T05:04:01.314Z,4.53
2022-12-04T05:07:04.438Z,4.55
2022-12-04T05:10:08.848Z,4.50
2022-12-04T05:13:15.938Z,4.47
2022-12-04T05:16:23.780Z,4.50
2022-12-04T05:19:45.764Z,4.35
2022-12-04T05:22:48.983Z,4.25
2022-12-04T05:25:58.973Z,4.80
2022-12-04T05:29:02.175Z,4.68
2022-12-04T05:32:05.967Z,4.50
2022-12-04T05:35:11.497Z,4.13
2022-12-04T05:38:15.037Z,4.90
2022-12-04T05:41:18.271Z,4.30
2022-12-04T05:44:21.652Z,4.28
2022-12-04T05:47:24.916Z,4.32
2022-12-04T05:50:28.278Z,4.03
2022-12-04T05:53:31.515Z,3.97
2022-12-04T05:56:34.649Z,4.30
2022-12-04T05:59:38.463Z,3.50
2022-12-04T06:02:41.782Z,4.03
2022-12-04T06:05:45.138Z,3.90
2022-12-04T06:08:48.879Z,3.92
2022-12-04T06:11:52.075Z,4.07
2022-12-04T06:14:55.356Z,3.83
2022-12-04T06:17:58.585Z,3.85
2022-12-04T06:21:01.804Z,4.07
2022-12-04T06:24:06.069Z,4.15
2022-12-04T06:27:27.103Z,3.80
2022-12-04T06:30:30.808Z,3.83
2022-12-04T06:33:34.997Z,3.60
2022-12-04T06:36:38.386Z,3.87
2022-12-04T06:39:41.673Z,4.10
2022-12-04T06:42:44.870Z,3.97
2022-12-04T06:45:48.262Z,4.43
2022-12-04T06:48:51.978Z,4.13
2022-12-04T06:51:55.292Z,4.03
2022-12-04T06:54:59.113Z,4.30
2022-12-04T06:58:02.285Z,3.97
2022-12-04T07:01:10.535Z,3.88
2022-12-04T07:04:14.029Z,3.78
2022-12-04T07:07:17.845Z,4.20
2022-12-04T07:10:21.341Z,4.00
2022-12-04T07:13:24.463Z,3.65
2022-12-04T07:16:28.674Z,4.00
2022-12-04T07:19:31.924Z,4.17
2022-12-04T07:22:35.191Z,3.65
2022-12-04T07:25:41.354Z,4.28
2022-12-04T07:28:47.489Z,3.80
2022-12-04T07:31:50.736Z,3.80
2022-12-04T07:34:54.324Z,3.90
2022-12-04T07:37:57.616Z,4.13
2022-12-04T07:41:02.971Z,3.85
2022-12-04T07:44:06.209Z,3.63
2022-12-04T07:47:09.588Z,4.10
2022-12-04T07:50:12.830Z,4.03
2022-12-04T07:53:16.225Z,4.25
2022-12-04T07:56:20.339Z,4.10
2022-12-04T07:59:23.555Z,4.43
2022-12-04T08:02:27.430Z,4.07
2022-12-04T08:05:31.753Z,3.75
2022-12-04T08:08:36.052Z,3.75
2022-12-04T08:11:39.399Z,3.93
2022-12-04T08:14:42.532Z,3.58
2022-12-04T08:17:45.678Z,4.43
2022-12-04T08:20:48.873Z,4.53
2022-12-04T08:23:53.776Z,3.55
2022-12-04T08:26:56.858Z,3.90
2022-12-04T08:30:00.109Z,4.10
2022-12-04T08:33:03.611Z,4.63
2022-12-04T08:36:08.659Z,5.05
2022-12-04T08:39:13.275Z,4.78
2022-12-04T08:42:16.497Z,4.60
2022-12-04T08:45:19.643Z,4.45
2022-12-04T08:48:22.943Z,3.95
2022-12-04T08:51:31.727Z,4.45
2022-12-04T08:54:37.652Z,4.37
2022-12-04T08:57:40.882Z,4.35
2022-12-04T09:00:49.377Z,4.30
2022-12-04T09:03:52.997Z,4.53
2022-12-04T09:06:56.917Z,3.87
2022-12-04T09:10:00.718Z,4.20
2022-12-04T09:13:07.097Z,3.58
2022-12-04T09:16:13.107Z,3.67
2022-12-04T09:19:16.556Z,3.77
2022-12-04T09:22:20.048Z,4.05
2022-12-04T09:25:23.531Z,3.90
2022-12-04T09:28:27.321Z,3.83
2022-12-04T09:31:32.156Z,3.70
2022-12-04T09:34:35.769Z,3.40
2022-12-04T09:37:39.409Z,3.65
2022-12-04T09:41:08.176Z,3.92
2022-12-04T09:44:17.400Z,3.47
2022-12-04T09:47:31.592Z,3.55
2022-12-04T09:50:41.053Z,3.78
2022-12-04T09:54:05.177Z,3.78
2022-12-04T09:57:43.980Z,3.97
2022-12-04T10:00:50.026Z,3.78
2022-12-04T10:03:56.912Z,4.13
2022-12-04T10:07:10.761Z,3.80
2022-12-04T10:10:25.972Z,3.97
2022-12-04T10:14:03.027Z,3.42
2022-12-04T10:17:51.326Z,3.47
2022-12-04T10:21:07.248Z,3.28
2022-12-04T10:24:31.571Z,3.00
2022-12-04T10:27:51.081Z,3.43
2022-12-04T10:30:57.992Z,3.40
2022-12-04T10:34:12.542Z,3.42
2022-12-04T10:37:16.191Z,3.92
2022-12-04T10:40:25.272Z,3.88
2022-12-04T10:43:43.164Z,3.40
2022-12-04T10:46:47.151Z,3.30
2022-12-04T10:50:02.353Z,3.80
2022-12-04T10:53:10.716Z,3.50
2022-12-04T10:56:18.667Z,3.40
2022-12-04T10:59:22.585Z,3.83
2022-12-04T11:02:32.004Z,3.30
2022-12-04T11:05:53.009Z,3.40
2022-12-04T11:08:57.200Z,3.00
2022-12-04T11:12:18.486Z,3.00
2022-12-04T11:15:22.487Z,3.20
2022-12-04T11:18:31.875Z,3.30
2022-12-04T11:21:35.451Z,3.75
2022-12-04T11:24:40.740Z,4.00
2022-12-04T11:27:48.657Z,4.20
2022-12-04T11:30:55.260Z,4.00
2022-12-04T11:34:01.896Z,4.32
2022-12-04T11:37:06.602Z,3.72
2022-12-04T11:40:18.531Z,3.88
2022-12-04T11:43:25.353Z,4.00
2022-12-04T11:46:34.203Z,3.77
2022-12-04T11:49:43.727Z,3.00
2022-12-04T11:53:10.509Z,3.67
2022-12-04T11:56:26.032Z,3.55
2022-12-04T11:59:51.023Z,3.72
2022-12-04T12:03:18.633Z,3.83
2022-12-04T12:06:36.533Z,3.60
2022-12-04T12:10:06.195Z,3.30
2022-12-04T12:13:24.384Z,3.45
2022-12-04T12:16:33.964Z,3.28
2022-12-04T12:20:11.096Z,3.10
2022-12-04T12:23:31.365Z,3.53
2022-12-04T12:27:00.778Z,3.50
2022-12-04T12:30:20.053Z,3.53
2022-12-04T12:33:28.934Z,3.35
2022-12-04T12:36:43.607Z,3.43
2022-12-04T12:40:21.685Z,3.50
2022-12-04T12:43:32.172Z,3.72
2022-12-04T12:46:41.972Z,3.53
2022-12-04T12:49:59.817Z,3.60
2022-12-04T12:53:10.696Z,3.30
2022-12-04T12:56:14.417Z,3.20
2022-12-04T12:59:25.389Z,3.10
2022-12-04T13:02:36.014Z,3.28
2022-12-04T13:05:51.437Z,3.47
2022-12-04T13:09:15.661Z,3.30
2022-12-04T13:12:20.620Z,3.60
2022-12-04T13:15:31.284Z,3.58
2022-12-04T13:18:49.802Z,3.30
2022-12-04T13:22:17.776Z,3.63
2022-12-04T13:25:52.925Z,3.72
2022-12-04T13:29:13.568Z,3.67
2022-12-04T13:32:23.933Z,3.70
2022-12-04T13:36:06.391Z,3.90
2022-12-04T13:39:31.471Z,3.43
2022-12-04T13:42:34.784Z,4.82
2022-12-04T13:45:40.868Z,4.18
2022-12-04T13:48:44.449Z,4.05
2022-12-04T13:51:49.099Z,4.68
2022-12-04T13:55:00.005Z,4.97
2022-12-04T13:58:12.149Z,4.70
2022-12-04T14:01:42.347Z,5.00
2022-12-04T14:04:53.219Z,4.85
2022-12-04T14:08:07.293Z,5.22
2022-12-04T14:11:17.984Z,5.47
2022-12-04T14:14:51.564Z,4.95
2022-12-04T14:18:11.652Z,4.97
2022-12-04T14:21:14.995Z,5.53
2022-12-04T14:24:39.886Z,5.05
2022-12-04T14:27:46.682Z,5.20
2022-12-04T14:31:08.595Z,5.40
2022-12-04T14:34:23.333Z,5.70
2022-12-04T14:37:37.986Z,5.85
2022-12-04T14:40:48.115Z,6.38
2022-12-04T14:43:52.900Z,6.03
2022-12-04T14:47:12.096Z,5.72
2022-12-04T14:50:55.716Z,6.20
2022-12-04T14:54:20.414Z,5.35
2022-12-04T14:57:50.304Z,4.90
2022-12-04T15:01:00.428Z,3.95
2022-12-04T15:04:29.063Z,2.65
2022-12-04T15:07:33.223Z,2.40
2022-12-04T15:10:57.868Z,2.47
2022-12-04T15:14:14.965Z,2.97
2022-12-04T15:17:19.688Z,2.60
2022-12-04T15:20:24.050Z,2.63
2022-12-04T15:23:34.633Z,1.98
2022-12-04T15:26:39.698Z,2.30
2022-12-04T15:29:48.385Z,2.20
2022-12-04T15:32:53.765Z,2.20
2022-12-04T15:36:05.517Z,2.42
2022-12-04T15:39:12.830Z,1.92
2022-12-04T15:42:24.793Z,2.30
2022-12-04T15:45:31.945Z,2.53
2022-12-04T15:48:36.064Z,2.53
2022-12-04T15:51:39.603Z,2.90
2022-12-04T15:54:48.320Z,2.42
2022-12-04T15:58:04.637Z,2.93
2022-12-04T16:01:11.799Z,2.58
2022-12-04T16:04:28.513Z,2.80
2022-12-04T16:07:32.439Z,2.70
2022-12-04T16:10:36.862Z,2.37
2022-12-04T16:13:40.365Z,2.30
2022-12-04T16:16:47.194Z,2.35
2022-12-04T16:19:50.700Z,2.47
2022-12-04T16:22:55.372Z,2.67
2022-12-04T16:25:58.592Z,2.50
2022-12-04T16:29:01.945Z,2.50
2022-12-04T16:32:06.510Z,1.60
2022-12-04T16:35:16.138Z,2.40
2022-12-04T16:38:19.698Z,2.75
2022-12-04T16:41:23.203Z,2.80
2022-12-04T16:44:26.656Z,2.53
2022-12-04T16:47:30.092Z,2.83
2022-12-04T16:50:33.560Z,2.58
2022-12-04T16:53:37.044Z,3.03
2022-12-04T16:56:40.839Z,3.37
2022-12-04T16:59:44.362Z,2.25
2022-12-04T17:02:49.089Z,2.33
2022-12-04T17:05:52.571Z,2.75
2022-12-04T17:08:56.264Z,2.40
2022-12-04T17:11:59.573Z,2.70
2022-12-04T17:15:03.029Z,2.53
2022-12-04T17:18:11.373Z,2.15
2022-12-04T17:21:16.876Z,2.55
2022-12-04T17:24:20.445Z,2.40
2022-12-04T17:27:24.987Z,1.98
2022-12-04T17:30:32.820Z,2.25
2022-12-04T17:33:39.253Z,2.40
2022-12-04T17:36:42.660Z,1.88
2022-12-04T17:39:46.423Z,2.07
2022-12-04T17:42:49.890Z,2.03
2022-12-04T17:45:53.349Z,2.00
2022-12-04T17:49:00.436Z,2.03
2022-12-04T17:52:06.678Z,1.90
2022-12-04T17:55:09.932Z,1.50
2022-12-04T17:58:13.465Z,1.42
2022-12-04T18:01:23.779Z,1.40
2022-12-04T18:04:27.300Z,1.60
2022-12-04T18:07:31.649Z,1.40
2022-12-04T18:10:35.777Z,1.42
2022-12-04T18:13:39.517Z,1.73
2022-12-04T18:16:45.857Z,1.30
2022-12-04T18:19:49.257Z,1.25
2022-12-04T18:22:52.739Z,1.53
2022-12-04T18:26:00.124Z,1.50
2022-12-04T18:29:04.921Z,1.55
2022-12-04T18:32:08.562Z,1.63
2022-12-04T18:35:11.946Z,1.40
2022-12-04T18:38:15.679Z,1.35
2022-12-04T18:41:19.195Z,1.70
2022-12-04T18:44:23.027Z,1.52
2022-12-04T18:47:27.023Z,1.35
2022-12-04T18:50:30.545Z,1.50
2022-12-04T18:53:34.407Z,1.42
2022-12-04T18:56:38.026Z,1.30
2022-12-04T18:59:41.455Z,1.80
2022-12-04T19:02:46.292Z,1.63
2022-12-04T19:05:52.857Z,1.42
2022-12-04T19:08:58.175Z,1.30
2022-12-04T19:12:01.749Z,1.52
2022-12-04T19:15:05.606Z,1.63
2022-12-04T19:18:09.525Z,1.60
2022-12-04T19:21:14.703Z,1.35
2022-12-04T19:24:18.368Z,1.85
2022-12-04T19:27:21.946Z,1.25
2022-12-04T19:30:25.505Z,1.87
2022-12-04T19:33:29.488Z,1.27
2022-12-04T19:36:35.561Z,1.42
2022-12-04T19:39:39.228Z,1.33
2022-12-04T19:42:47.689Z,1.33
2022-12-04T19:45:51.074Z,1.70
2022-12-04T19:48:58.195Z,1.38
2022-12-04T19:52:01.831Z,1.20
2022-12-04T19:55:06.246Z,1.40
2022-12-04T19:58:09.852Z,1.30
2022-12-04T20:01:15.773Z,1.20
2022-12-04T20:04:19.456Z,1.35
2022-12-04T20:07:22.933Z,1.40
2022-12-04T20:10:26.434Z,1.40
2022-12-04T20:13:30.365Z,1.10
2022-12-04T20:16:34.887Z,1.38
2022-12-04T20:19:38.460Z,1.50
2022-12-04T20:22:41.782Z,1.25
2022-12-04T20:25:45.220Z,1.53
2022-12-04T20:28:48.721Z,1.50
2022-12-04T20:31:54.144Z,1.30
2022-12-04T20:34:57.544Z,1.35
2022-12-04T20:38:01.114Z,1.50
2022-12-04T20:41:09.134Z,1.27
2022-12-04T20:44:15.551Z,1.30
2022-12-04T20:47:19.249Z,1.10
2022-12-04T20:50:22.565Z,1.30
2022-12-04T20:53:26.113Z,1.30
2022-12-04T20:56:33.029Z,1.33
2022-12-04T20:59:36.933Z,1.50
2022-12-04T21:02:40.444Z,1.35
2022-12-04T21:05:49.822Z,1.50
2022-12-04T21:08:53.629Z,1.35
2022-12-04T21:11:57.189Z,1.48
2022-12-04T21:15:19.299Z,1.20
2022-12-04T21:18:23.067Z,1.17
2022-12-04T21:21:29.709Z,1.50
2022-12-04T21:24:38.256Z,1.60
2022-12-04T21:27:41.413Z,1.30
2022-12-04T21:30:44.754Z,1.57
2022-12-04T21:33:48.216Z,1.70
2022-12-04T21:36:51.422Z,1.58
2022-12-04T21:39:54.781Z,1.42
2022-12-04T21:42:57.999Z,1.27
2022-12-04T21:46:09.418Z,1.30
2022-12-04T21:49:13.860Z,1.83
2022-12-04T21:52:18.460Z,1.25
2022-12-04T21:55:21.645Z,1.10
2022-12-04T21:58:26.056Z,0.90
2022-12-04T22:01:29.422Z,1.10
2022-12-04T22:04:32.628Z,0.73
2022-12-04T22:07:35.861Z,1.20
2022-12-04T22:10:44.277Z,1.27
2022-12-04T22:13:47.496Z,1.15
2022-12-04T22:16:51.858Z,1.05
2022-12-04T22:19:55.686Z,1.40
2022-12-04T22:22:59.598Z,1.08
2022-12-04T22:26:08.393Z,1.20
2022-12-04T22:29:41.899Z,1.45
2022-12-04T22:32:34.848Z,1.02
2022-12-04T22:35:38.096Z,1.52
2022-12-04T22:39:05.986Z,1.33
2022-12-04T22:42:05.391Z,1.33
2022-12-04T22:45:08.970Z,1.77
2022-12-04T22:48:12.110Z,1.50
2022-12-04T22:51:19.572Z,1.30
2022-12-04T22:54:22.729Z,1.52
2022-12-04T22:57:26.475Z,1.60
2022-12-04T23:00:29.760Z,1.15
2022-12-04T23:03:33.626Z,1.15
2022-12-04T23:06:36.982Z,1.00
2022-12-04T23:09:40.495Z,1.50
2022-12-04T23:12:43.768Z,1.40
2022-12-04T23:15:49.658Z,1.50
2022-12-04T23:18:53.664Z,1.70
2022-12-04T23:21:57.550Z,1.60
2022-12-04T23:25:00.819Z,1.63
2022-12-04T23:28:04.111Z,1.30
2022-12-04T23:31:07.476Z,1.55
2022-12-04T23:34:10.681Z,1.30
2022-12-04T23:37:13.887Z,1.85
2022-12-04T23:40:17.124Z,1.20
2022-12-04T23:43:20.617Z,1.30
2022-12-04T23:46:27.453Z,1.10
2022-12-04T23:49:30.839Z,1.25
2022-12-04T23:52:34.031Z,1.30
2022-12-04T23:55:37.372Z,1.42
2022-12-04T23:58:42.215Z,1.40
